sensor_id;sensor_type;location;lat;lon;timestamp;pressure;altitude;pressure_sealevel;temperature;humidity
70841;BME280;58465;51.534;9.934;2022-08-21T00:02:20;100041.22;;;18.23;79.22
70841;BME280;58465;51.534;9.934;2022-08-21T00:04:46;100048.81;;;18.16;79.67
70841;BME280;58465;51.534;9.934;2022-08-21T00:07:11;100051.03;;;18.08;79.85
70841;BME280;58465;51.534;9.934;2022-08-21T00:09:37;100046.19;;;17.98;79.96
70841;BME280;58465;51.534;9.934;2022-08-21T00:12:03;100047.31;;;17.94;80.10
70841;BME280;58465;51.534;9.934;2022-08-21T00:14:29;100043.19;;;17.87;80.40
70841;BME280;58465;51.534;9.934;2022-08-21T00:16:54;100034.13;;;17.88;80.22
70841;BME280;58465;51.534;9.934;2022-08-21T00:19:19;100039.69;;;17.85;80.11
70841;BME280;58465;51.534;9.934;2022-08-21T00:21:46;100044.38;;;17.81;80.11
70841;BME280;58465;51.534;9.934;2022-08-21T00:24:12;100040.25;;;17.74;80.18
70841;BME280;58465;51.534;9.934;2022-08-21T00:26:37;100050.31;;;17.70;80.14
70841;BME280;58465;51.534;9.934;2022-08-21T00:29:03;100041.97;;;17.58;80.16
70841;BME280;58465;51.534;9.934;2022-08-21T00:31:28;100036.16;;;17.48;80.19
70841;BME280;58465;51.534;9.934;2022-08-21T00:33:53;100037.13;;;17.47;80.59
70841;BME280;58465;51.534;9.934;2022-08-21T00:36:19;100032.66;;;17.46;80.75
70841;BME280;58465;51.534;9.934;2022-08-21T00:38:44;100031.72;;;17.47;80.65
70841;BME280;58465;51.534;9.934;2022-08-21T00:41:11;100029.72;;;17.51;80.69
70841;BME280;58465;51.534;9.934;2022-08-21T00:43:38;100033.28;;;17.51;80.58
70841;BME280;58465;51.534;9.934;2022-08-21T00:46:04;100026.06;;;17.52;80.67
70841;BME280;58465;51.534;9.934;2022-08-21T00:48:30;100025.91;;;17.55;80.74
70841;BME280;58465;51.534;9.934;2022-08-21T00:51:12;100031.16;;;17.58;80.41
70841;BME280;58465;51.534;9.934;2022-08-21T00:53:42;100037.66;;;17.54;80.34
70841;BME280;58465;51.534;9.934;2022-08-21T00:56:10;100029.88;;;17.48;80.08
70841;BME280;58465;51.534;9.934;2022-08-21T00:58:37;100031.06;;;17.42;80.08
70841;BME280;58465;51.534;9.934;2022-08-21T01:01:05;100026.53;;;17.42;80.33
70841;BME280;58465;51.534;9.934;2022-08-21T01:03:31;100037.41;;;17.41;80.02
70841;BME280;58465;51.534;9.934;2022-08-21T01:05:57;100039.56;;;17.34;80.11
70841;BME280;58465;51.534;9.934;2022-08-21T01:08:23;100036.22;;;17.29;80.47
70841;BME280;58465;51.534;9.934;2022-08-21T01:10:49;100036.50;;;17.23;80.46
70841;BME280;58465;51.534;9.934;2022-08-21T01:13:17;100037.53;;;17.21;80.35
70841;BME280;58465;51.534;9.934;2022-08-21T01:15:46;100048.56;;;17.16;80.72
70841;BME280;58465;51.534;9.934;2022-08-21T01:18:14;100040.69;;;17.12;80.32
70841;BME280;58465;51.534;9.934;2022-08-21T01:20:44;100038.09;;;17.10;80.52
70841;BME280;58465;51.534;9.934;2022-08-21T01:23:10;100034.72;;;17.05;80.37
70841;BME280;58465;51.534;9.934;2022-08-21T01:25:35;100034.00;;;17.01;80.57
70841;BME280;58465;51.534;9.934;2022-08-21T01:28:06;100031.59;;;16.95;80.88
70841;BME280;58465;51.534;9.934;2022-08-21T01:30:32;100033.50;;;16.93;80.82
70841;BME280;58465;51.534;9.934;2022-08-21T01:32:59;100029.03;;;16.92;80.93
70841;BME280;58465;51.534;9.934;2022-08-21T01:35:24;100029.03;;;16.92;80.84
70841;BME280;58465;51.534;9.934;2022-08-21T01:37:50;100034.59;;;16.89;80.94
70841;BME280;58465;51.534;9.934;2022-08-21T01:40:16;100038.00;;;16.93;81.00
70841;BME280;58465;51.534;9.934;2022-08-21T01:42:43;100035.41;;;16.91;80.66
70841;BME280;58465;51.534;9.934;2022-08-21T01:45:10;100031.84;;;16.91;80.75
70841;BME280;58465;51.534;9.934;2022-08-21T01:47:35;100028.41;;;16.87;80.67
70841;BME280;58465;51.534;9.934;2022-08-21T01:50:04;100027.66;;;16.84;80.95
70841;BME280;58465;51.534;9.934;2022-08-21T01:52:29;100031.31;;;16.83;81.01
70841;BME280;58465;51.534;9.934;2022-08-21T01:54:55;100030.59;;;16.79;81.10
70841;BME280;58465;51.534;9.934;2022-08-21T01:57:20;100024.59;;;16.73;80.85
70841;BME280;58465;51.534;9.934;2022-08-21T01:59:45;100027.41;;;16.71;81.32
70841;BME280;58465;51.534;9.934;2022-08-21T02:02:11;100025.66;;;16.70;81.31
70841;BME280;58465;51.534;9.934;2022-08-21T02:04:36;100037.00;;;16.77;81.31
70841;BME280;58465;51.534;9.934;2022-08-21T02:07:02;100029.66;;;16.80;81.05
70841;BME280;58465;51.534;9.934;2022-08-21T02:09:27;100021.69;;;16.77;80.72
70841;BME280;58465;51.534;9.934;2022-08-21T02:11:53;100027.53;;;16.68;80.73
70841;BME280;58465;51.534;9.934;2022-08-21T02:14:19;100032.41;;;16.60;81.53
70841;BME280;58465;51.534;9.934;2022-08-21T02:16:45;100020.22;;;16.51;81.49
70841;BME280;58465;51.534;9.934;2022-08-21T02:19:13;100022.03;;;16.51;81.83
70841;BME280;58465;51.534;9.934;2022-08-21T02:21:39;100012.34;;;16.47;81.81
70841;BME280;58465;51.534;9.934;2022-08-21T02:24:05;100011.63;;;16.43;82.20
70841;BME280;58465;51.534;9.934;2022-08-21T02:26:30;100009.00;;;16.42;81.99
70841;BME280;58465;51.534;9.934;2022-08-21T02:28:56;100007.31;;;16.39;81.90
70841;BME280;58465;51.534;9.934;2022-08-21T02:31:21;100020.72;;;16.41;82.13
70841;BME280;58465;51.534;9.934;2022-08-21T02:33:47;100008.25;;;16.38;82.29
70841;BME280;58465;51.534;9.934;2022-08-21T02:36:12;100009.00;;;16.42;82.20
70841;BME280;58465;51.534;9.934;2022-08-21T02:38:39;99998.22;;;16.42;82.52
70841;BME280;58465;51.534;9.934;2022-08-21T02:41:08;100011.47;;;16.46;82.15
70841;BME280;58465;51.534;9.934;2022-08-21T02:43:33;100011.34;;;16.49;82.23
70841;BME280;58465;51.534;9.934;2022-08-21T02:45:59;100006.81;;;16.50;81.72
70841;BME280;58465;51.534;9.934;2022-08-21T02:48:27;100012.28;;;16.48;81.48
70841;BME280;58465;51.534;9.934;2022-08-21T02:50:59;100017.88;;;16.44;81.42
70841;BME280;58465;51.534;9.934;2022-08-21T02:53:27;100015.53;;;16.36;81.42
70841;BME280;58465;51.534;9.934;2022-08-21T02:55:53;100017.53;;;16.32;81.75
70841;BME280;58465;51.534;9.934;2022-08-21T02:58:22;100009.56;;;16.29;81.58
70841;BME280;58465;51.534;9.934;2022-08-21T03:00:48;100000.81;;;16.24;81.54
70841;BME280;58465;51.534;9.934;2022-08-21T03:03:14;100001.91;;;16.20;81.55
70841;BME280;58465;51.534;9.934;2022-08-21T03:05:40;99997.66;;;16.15;81.53
70841;BME280;58465;51.534;9.934;2022-08-21T03:08:07;99997.94;;;16.09;81.66
70841;BME280;58465;51.534;9.934;2022-08-21T03:10:38;100001.66;;;16.06;81.71
70841;BME280;58465;51.534;9.934;2022-08-21T03:13:05;100005.56;;;15.99;81.52
70841;BME280;58465;51.534;9.934;2022-08-21T03:15:31;100006.69;;;15.95;81.62
70841;BME280;58465;51.534;9.934;2022-08-21T03:17:57;100005.19;;;15.88;81.63
70841;BME280;58465;51.534;9.934;2022-08-21T03:20:27;100010.97;;;15.79;81.86
70841;BME280;58465;51.534;9.934;2022-08-21T03:22:54;100021.56;;;15.83;82.03
70841;BME280;58465;51.534;9.934;2022-08-21T03:25:21;100015.53;;;15.77;81.81
70841;BME280;58465;51.534;9.934;2022-08-21T03:27:47;100022.16;;;15.70;81.63
70841;BME280;58465;51.534;9.934;2022-08-21T03:30:15;100025.53;;;15.54;82.10
70841;BME280;58465;51.534;9.934;2022-08-21T03:32:41;100028.59;;;15.45;82.14
70841;BME280;58465;51.534;9.934;2022-08-21T03:35:06;100024.25;;;15.41;82.32
70841;BME280;58465;51.534;9.934;2022-08-21T03:37:32;100024.25;;;15.41;82.42
70841;BME280;58465;51.534;9.934;2022-08-21T03:39:57;100014.31;;;15.43;82.02
70841;BME280;58465;51.534;9.934;2022-08-21T03:42:23;100021.56;;;15.41;81.88
70841;BME280;58465;51.534;9.934;2022-08-21T03:44:48;100021.44;;;15.44;81.88
70841;BME280;58465;51.534;9.934;2022-08-21T03:47:14;100026.56;;;15.50;81.65
70841;BME280;58465;51.534;9.934;2022-08-21T03:49:39;100027.28;;;15.55;81.58
70841;BME280;58465;51.534;9.934;2022-08-21T03:52:04;100018.28;;;15.56;81.67
70841;BME280;58465;51.534;9.934;2022-08-21T03:54:30;100014.75;;;15.54;81.51
70841;BME280;58465;51.534;9.934;2022-08-21T03:56:55;100025.53;;;15.54;81.34
70841;BME280;58465;51.534;9.934;2022-08-21T03:59:21;100022.69;;;15.57;81.37
70841;BME280;58465;51.534;9.934;2022-08-21T04:04:18;100028.75;;;15.63;81.13
70841;BME280;58465;51.534;9.934;2022-08-21T04:06:44;100027.94;;;15.61;80.73
70841;BME280;58465;51.534;9.934;2022-08-21T04:09:10;100034.03;;;15.66;80.43
70841;BME280;58465;51.534;9.934;2022-08-21T04:11:35;100034.03;;;15.66;80.36
70841;BME280;58465;51.534;9.934;2022-08-21T04:14:02;100041.13;;;15.67;80.11
70841;BME280;58465;51.534;9.934;2022-08-21T04:16:27;100043.63;;;15.71;79.75
70841;BME280;58465;51.534;9.934;2022-08-21T04:18:52;100048.03;;;15.74;79.66
70841;BME280;58465;51.534;9.934;2022-08-21T04:21:17;100041.59;;;15.76;79.13
70841;BME280;58465;51.534;9.934;2022-08-21T04:23:43;100056.81;;;15.77;79.24
70841;BME280;58465;51.534;9.934;2022-08-21T04:26:08;100058.78;;;15.74;79.22
70841;BME280;58465;51.534;9.934;2022-08-21T04:28:33;100059.91;;;15.68;79.50
70841;BME280;58465;51.534;9.934;2022-08-21T04:30:59;100061.53;;;15.72;79.22
70841;BME280;58465;51.534;9.934;2022-08-21T04:33:25;100057.03;;;15.73;79.42
70841;BME280;58465;51.534;9.934;2022-08-21T04:35:50;100059.59;;;15.76;79.59
70841;BME280;58465;51.534;9.934;2022-08-21T04:38:16;100057.84;;;15.75;79.18
70841;BME280;58465;51.534;9.934;2022-08-21T04:40:41;100060.19;;;15.62;79.30
70841;BME280;58465;51.534;9.934;2022-08-21T04:43:09;100067.66;;;15.55;79.64
70841;BME280;58465;51.534;9.934;2022-08-21T04:45:38;100065.06;;;15.52;79.93
70841;BME280;58465;51.534;9.934;2022-08-21T04:48:05;100075.75;;;15.55;79.87
70841;BME280;58465;51.534;9.934;2022-08-21T04:50:43;100078.22;;;15.60;79.96
70841;BME280;58465;51.534;9.934;2022-08-21T04:53:16;100069.13;;;15.63;79.82
70841;BME280;58465;51.534;9.934;2022-08-21T04:55:43;100074.41;;;15.66;79.57
70841;BME280;58465;51.534;9.934;2022-08-21T04:58:11;100070.91;;;15.64;79.59
70841;BME280;58465;51.534;9.934;2022-08-21T05:00:38;100076.81;;;15.72;79.15
70841;BME280;58465;51.534;9.934;2022-08-21T05:03:05;100074.19;;;15.70;79.59
70841;BME280;58465;51.534;9.934;2022-08-21T05:05:32;100075.06;;;15.71;79.47
70841;BME280;58465;51.534;9.934;2022-08-21T05:07:59;100074.25;;;15.69;79.55
70841;BME280;58465;51.534;9.934;2022-08-21T05:10:26;100070.56;;;15.71;79.26
70841;BME280;58465;51.534;9.934;2022-08-21T05:12:52;100075.66;;;15.77;79.13
70841;BME280;58465;51.534;9.934;2022-08-21T05:15:17;100078.78;;;15.88;78.66
70841;BME280;58465;51.534;9.934;2022-08-21T05:17:43;100081.69;;;16.04;78.21
70841;BME280;58465;51.534;9.934;2022-08-21T05:20:10;100073.03;;;16.16;77.58
70841;BME280;58465;51.534;9.934;2022-08-21T05:22:36;100082.22;;;16.32;77.13
70841;BME280;58465;51.534;9.934;2022-08-21T05:25:01;100073.38;;;16.29;77.02
70841;BME280;58465;51.534;9.934;2022-08-21T05:27:27;100083.38;;;16.46;76.76
70841;BME280;58465;51.534;9.934;2022-08-21T05:29:55;100080.19;;;16.56;76.09
70841;BME280;58465;51.534;9.934;2022-08-21T05:32:20;100083.38;;;16.66;76.13
70841;BME280;58465;51.534;9.934;2022-08-21T05:34:45;100092.13;;;16.71;75.66
70841;BME280;58465;51.534;9.934;2022-08-21T05:37:11;100091.03;;;16.75;75.28
70841;BME280;58465;51.534;9.934;2022-08-21T05:39:37;100087.00;;;16.84;75.15
70841;BME280;58465;51.534;9.934;2022-08-21T05:42:02;100090.16;;;16.93;74.92
70841;BME280;58465;51.534;9.934;2022-08-21T05:44:28;100085.84;;;17.08;74.62
70841;BME280;58465;51.534;9.934;2022-08-21T05:46:53;100084.72;;;17.12;74.19
70841;BME280;58465;51.534;9.934;2022-08-21T05:49:19;100078.56;;;17.10;74.07
70841;BME280;58465;51.534;9.934;2022-08-21T05:51:44;100078.91;;;17.02;74.31
70841;BME280;58465;51.534;9.934;2022-08-21T05:54:10;100084.47;;;16.99;74.61
70841;BME280;58465;51.534;9.934;2022-08-21T05:56:36;100085.03;;;17.06;74.68
70841;BME280;58465;51.534;9.934;2022-08-21T05:59:01;100079.28;;;17.14;74.60
70841;BME280;58465;51.534;9.934;2022-08-21T06:01:27;100086.84;;;17.24;74.08
70841;BME280;58465;51.534;9.934;2022-08-21T06:03:52;100081.00;;;17.33;73.62
70841;BME280;58465;51.534;9.934;2022-08-21T06:06:17;100083.97;;;17.46;73.18
70841;BME280;58465;51.534;9.934;2022-08-21T06:08:43;100098.16;;;17.50;72.92
70841;BME280;58465;51.534;9.934;2022-08-21T06:11:09;100084.91;;;17.45;72.93
70841;BME280;58465;51.534;9.934;2022-08-21T06:13:35;100087.47;;;17.48;73.02
70841;BME280;58465;51.534;9.934;2022-08-21T06:16:11;100081.81;;;17.53;73.01
70841;BME280;58465;51.534;9.934;2022-08-21T06:18:38;100089.72;;;17.57;72.76
70841;BME280;58465;51.534;9.934;2022-08-21T06:21:04;100081.75;;;17.54;72.93
70841;BME280;58465;51.534;9.934;2022-08-21T06:23:29;100088.75;;;17.58;72.87
70841;BME280;58465;51.534;9.934;2022-08-21T06:25:55;100088.03;;;17.55;73.16
70841;BME280;58465;51.534;9.934;2022-08-21T06:28:21;100096.69;;;17.61;73.21
70841;BME280;58465;51.534;9.934;2022-08-21T06:30:46;100089.03;;;17.71;72.80
70841;BME280;58465;51.534;9.934;2022-08-21T06:33:12;100089.13;;;17.87;72.38
70841;BME280;58465;51.534;9.934;2022-08-21T06:35:37;100098.72;;;18.09;71.68
70841;BME280;58465;51.534;9.934;2022-08-21T06:38:03;100092.41;;;18.26;71.27
70841;BME280;58465;51.534;9.934;2022-08-21T06:40:28;100089.63;;;18.45;70.82
70841;BME280;58465;51.534;9.934;2022-08-21T06:42:54;100097.53;;;18.65;69.92
70841;BME280;58465;51.534;9.934;2022-08-21T06:45:20;100090.41;;;18.64;69.52
70841;BME280;58465;51.534;9.934;2022-08-21T06:47:46;100082.75;;;18.72;69.67
70841;BME280;58465;51.534;9.934;2022-08-21T06:50:11;100086.31;;;18.88;69.32
70841;BME280;58465;51.534;9.934;2022-08-21T06:52:37;100090.88;;;19.04;68.88
70841;BME280;58465;51.534;9.934;2022-08-21T06:55:09;100086.59;;;19.15;68.55
70841;BME280;58465;51.534;9.934;2022-08-21T06:57:35;100078.16;;;19.21;68.27
70841;BME280;58465;51.534;9.934;2022-08-21T07:00:03;100079.88;;;19.38;67.67
70841;BME280;58465;51.534;9.934;2022-08-21T07:02:29;100080.53;;;19.42;67.37
70841;BME280;58465;51.534;9.934;2022-08-21T07:04:54;100082.66;;;19.37;67.78
70841;BME280;58465;51.534;9.934;2022-08-21T07:07:20;100078.03;;;19.39;67.64
70841;BME280;58465;51.534;9.934;2022-08-21T07:09:45;100073.75;;;19.35;67.69
70841;BME280;58465;51.534;9.934;2022-08-21T07:12:10;100070.78;;;19.55;67.12
70841;BME280;58465;51.534;9.934;2022-08-21T07:14:36;100078.00;;;20.58;63.65
70841;BME280;58465;51.534;9.934;2022-08-21T07:17:01;100069.13;;;21.11;61.72
70841;BME280;58465;51.534;9.934;2022-08-21T07:19:27;100068.81;;;21.30;61.31
70841;BME280;58465;51.534;9.934;2022-08-21T07:21:57;100061.38;;;22.00;59.25
70841;BME280;58465;51.534;9.934;2022-08-21T07:24:24;100052.44;;;22.87;57.28
70841;BME280;58465;51.534;9.934;2022-08-21T07:26:49;100057.78;;;22.50;56.56
70841;BME280;58465;51.534;9.934;2022-08-21T07:29:15;100053.44;;;22.23;58.12
70841;BME280;58465;51.534;9.934;2022-08-21T07:31:40;100049.31;;;22.30;58.00
70841;BME280;58465;51.534;9.934;2022-08-21T07:34:05;100052.69;;;21.81;59.04
70841;BME280;58465;51.534;9.934;2022-08-21T07:36:31;100050.97;;;21.53;60.33
70841;BME280;58465;51.534;9.934;2022-08-21T07:38:56;100042.56;;;21.83;59.53
70841;BME280;58465;51.534;9.934;2022-08-21T07:41:25;100052.13;;;22.53;57.84
70841;BME280;58465;51.534;9.934;2022-08-21T07:43:53;100047.50;;;23.28;55.63
70841;BME280;58465;51.534;9.934;2022-08-21T07:46:19;100038.63;;;23.85;54.10
70841;BME280;58465;51.534;9.934;2022-08-21T07:48:44;100042.13;;;24.22;52.99
70841;BME280;58465;51.534;9.934;2022-08-21T07:51:13;100039.00;;;23.81;52.77
70841;BME280;58465;51.534;9.934;2022-08-21T07:53:39;100042.28;;;23.62;53.82
70841;BME280;58465;51.534;9.934;2022-08-21T07:56:05;100044.41;;;23.09;54.85
70841;BME280;58465;51.534;9.934;2022-08-21T07:58:32;100045.47;;;22.96;55.67
70841;BME280;58465;51.534;9.934;2022-08-21T08:00:57;100037.19;;;22.72;55.51
70841;BME280;58465;51.534;9.934;2022-08-21T08:03:23;100035.13;;;22.63;55.64
70841;BME280;58465;51.534;9.934;2022-08-21T08:05:49;100026.88;;;22.51;56.31
70841;BME280;58465;51.534;9.934;2022-08-21T08:08:14;100029.38;;;22.42;56.20
70841;BME280;58465;51.534;9.934;2022-08-21T08:10:40;100018.91;;;22.61;56.04
70841;BME280;58465;51.534;9.934;2022-08-21T08:13:06;100027.16;;;22.72;55.69
70841;BME280;58465;51.534;9.934;2022-08-21T08:15:31;100029.13;;;22.70;56.11
70841;BME280;58465;51.534;9.934;2022-08-21T08:17:56;100030.88;;;22.84;55.04
70841;BME280;58465;51.534;9.934;2022-08-21T08:20:24;100021.69;;;22.98;54.92
70841;BME280;58465;51.534;9.934;2022-08-21T08:22:51;100024.06;;;23.02;54.80
70841;BME280;58465;51.534;9.934;2022-08-21T08:25:19;100024.25;;;23.12;54.70
70841;BME280;58465;51.534;9.934;2022-08-21T08:27:45;100029.03;;;22.84;54.79
70841;BME280;58465;51.534;9.934;2022-08-21T08:30:13;100020.22;;;22.68;55.67
70841;BME280;58465;51.534;9.934;2022-08-21T08:32:39;100012.91;;;22.81;55.49
70841;BME280;58465;51.534;9.934;2022-08-21T08:35:06;100021.03;;;23.30;54.46
70841;BME280;58465;51.534;9.934;2022-08-21T08:37:32;100014.38;;;23.58;53.57
70841;BME280;58465;51.534;9.934;2022-08-21T08:39:57;100016.34;;;23.56;53.60
70841;BME280;58465;51.534;9.934;2022-08-21T08:42:30;100004.69;;;23.89;51.82
70841;BME280;58465;51.534;9.934;2022-08-21T08:45:09;100006.34;;;24.14;51.92
70841;BME280;58465;51.534;9.934;2022-08-21T08:47:39;100019.84;;;24.51;50.69
70841;BME280;58465;51.534;9.934;2022-08-21T08:52:54;100014.25;;;24.63;49.90
70841;BME280;58465;51.534;9.934;2022-08-21T08:55:31;100017.84;;;24.64;49.82
70841;BME280;58465;51.534;9.934;2022-08-21T08:57:57;100003.19;;;24.76;49.49
70841;BME280;58465;51.534;9.934;2022-08-21T09:00:23;100007.53;;;24.67;49.68
70841;BME280;58465;51.534;9.934;2022-08-21T09:02:53;100014.47;;;24.27;50.73
70841;BME280;58465;51.534;9.934;2022-08-21T09:08:15;99997.47;;;24.23;48.64
70841;BME280;58465;51.534;9.934;2022-08-21T09:19:59;99994.13;;;24.64;44.55
70841;BME280;58465;51.534;9.934;2022-08-21T09:22:42;99987.78;;;24.53;44.00
70841;BME280;58465;51.534;9.934;2022-08-21T09:25:27;99998.47;;;24.78;43.84
70841;BME280;58465;51.534;9.934;2022-08-21T09:27:55;99997.38;;;24.58;44.00
70841;BME280;58465;51.534;9.934;2022-08-21T09:30:26;99994.16;;;24.31;43.25
70841;BME280;58465;51.534;9.934;2022-08-21T09:32:52;99997.13;;;24.39;43.61
70841;BME280;58465;51.534;9.934;2022-08-21T09:35:20;99995.63;;;24.80;43.39
70841;BME280;58465;51.534;9.934;2022-08-21T09:37:56;99982.25;;;25.20;40.82
70841;BME280;58465;51.534;9.934;2022-08-21T09:43:03;99989.66;;;25.40;39.54
70841;BME280;58465;51.534;9.934;2022-08-21T09:45:30;99986.63;;;25.54;39.83
70841;BME280;58465;51.534;9.934;2022-08-21T09:47:56;99987.78;;;25.40;39.29
70841;BME280;58465;51.534;9.934;2022-08-21T09:50:26;99992.47;;;25.18;40.21
70841;BME280;58465;51.534;9.934;2022-08-21T09:52:55;99993.13;;;24.76;40.08
70841;BME280;58465;51.534;9.934;2022-08-21T09:55:30;99989.50;;;25.09;39.75
70841;BME280;58465;51.534;9.934;2022-08-21T09:58:15;99977.63;;;25.31;38.54
70841;BME280;58465;51.534;9.934;2022-08-21T10:00:41;99983.69;;;25.03;38.78
70841;BME280;58465;51.534;9.934;2022-08-21T10:03:12;99990.88;;;25.04;39.03
70841;BME280;58465;51.534;9.934;2022-08-21T10:05:38;99976.53;;;25.23;39.11
70841;BME280;58465;51.534;9.934;2022-08-21T10:08:04;99969.75;;;25.38;39.02
70841;BME280;58465;51.534;9.934;2022-08-21T10:10:32;99964.47;;;25.57;38.62
70841;BME280;58465;51.534;9.934;2022-08-21T10:13:15;99966.72;;;25.63;38.23
70841;BME280;58465;51.534;9.934;2022-08-21T10:18:37;99965.81;;;25.74;38.08
70841;BME280;58465;51.534;9.934;2022-08-21T10:21:23;99973.72;;;25.98;37.21
70841;BME280;58465;51.534;9.934;2022-08-21T10:29:14;99960.63;;;26.43;35.70
70841;BME280;58465;51.534;9.934;2022-08-21T10:31:59;99952.63;;;25.88;36.55
70841;BME280;58465;51.534;9.934;2022-08-21T10:37:56;99958.34;;;26.06;36.85
70841;BME280;58465;51.534;9.934;2022-08-21T10:40:29;99952.50;;;25.69;37.57
70841;BME280;58465;51.534;9.934;2022-08-21T10:48:06;99946.16;;;26.31;35.17
70841;BME280;58465;51.534;9.934;2022-08-21T10:50:50;99952.88;;;26.06;36.51
70841;BME280;58465;51.534;9.934;2022-08-21T10:58:56;99952.50;;;25.69;36.16
70841;BME280;58465;51.534;9.934;2022-08-21T11:01:32;99947.72;;;25.82;36.33
70841;BME280;58465;51.534;9.934;2022-08-21T11:04:11;99946.03;;;26.33;35.07
70841;BME280;58465;51.534;9.934;2022-08-21T11:06:42;99952.44;;;26.52;35.19
70841;BME280;58465;51.534;9.934;2022-08-21T11:09:15;99945.22;;;26.51;34.71
70841;BME280;58465;51.534;9.934;2022-08-21T11:12:13;99952.59;;;26.51;34.78
70841;BME280;58465;51.534;9.934;2022-08-21T11:14:51;99946.00;;;26.73;34.30
70841;BME280;58465;51.534;9.934;2022-08-21T11:17:26;99944.03;;;26.84;34.39
70841;BME280;58465;51.534;9.934;2022-08-21T11:20:10;99944.88;;;26.75;34.59
70841;BME280;58465;51.534;9.934;2022-08-21T11:25:11;99937.06;;;26.31;34.89
70841;BME280;58465;51.534;9.934;2022-08-21T11:27:40;99936.47;;;26.27;35.29
70841;BME280;58465;51.534;9.934;2022-08-21T11:30:09;99936.94;;;26.32;35.09
70841;BME280;58465;51.534;9.934;2022-08-21T11:43:45;99921.38;;;28.17;30.67
70841;BME280;58465;51.534;9.934;2022-08-21T11:46:25;99924.72;;;28.21;30.79
70841;BME280;58465;51.534;9.934;2022-08-21T11:49:21;99934.72;;;28.02;31.36
70841;BME280;58465;51.534;9.934;2022-08-21T11:51:53;99926.38;;;28.41;30.71
70841;BME280;58465;51.534;9.934;2022-08-21T11:54:39;99927.59;;;28.19;30.79
70841;BME280;58465;51.534;9.934;2022-08-21T12:00:49;99919.13;;;28.40;30.15
70841;BME280;58465;51.534;9.934;2022-08-21T12:03:29;99913.94;;;27.81;30.49
70841;BME280;58465;51.534;9.934;2022-08-21T12:06:03;99914.28;;;28.61;29.66
70841;BME280;58465;51.534;9.934;2022-08-21T12:08:32;99901.56;;;30.28;27.87
70841;BME280;58465;51.534;9.934;2022-08-21T12:11:09;99911.47;;;31.39;25.33
70841;BME280;58465;51.534;9.934;2022-08-21T12:13:39;99904.06;;;31.56;24.23
70841;BME280;58465;51.534;9.934;2022-08-21T12:16:24;99903.03;;;31.89;24.19
70841;BME280;58465;51.534;9.934;2022-08-21T12:19:06;99906.91;;;32.43;23.29
70841;BME280;58465;51.534;9.934;2022-08-21T12:21:34;99896.81;;;33.74;22.36
70841;BME280;58465;51.534;9.934;2022-08-21T12:27:13;99896.19;;;35.41;19.64
70841;BME280;58465;51.534;9.934;2022-08-21T12:29:45;99898.53;;;35.22;19.97
70841;BME280;58465;51.534;9.934;2022-08-21T12:34:50;99890.06;;;34.29;21.22
70841;BME280;58465;51.534;9.934;2022-08-21T12:37:26;99888.88;;;35.33;19.19
70841;BME280;58465;51.534;9.934;2022-08-21T12:39:57;99892.03;;;35.30;19.38
70841;BME280;58465;51.534;9.934;2022-08-21T12:42:32;99893.56;;;34.23;20.05
70841;BME280;58465;51.534;9.934;2022-08-21T12:45:03;99892.59;;;32.79;22.14
70841;BME280;58465;51.534;9.934;2022-08-21T12:47:31;99898.44;;;32.45;21.90
70841;BME280;58465;51.534;9.934;2022-08-21T12:50:35;99882.97;;;34.12;20.49
70841;BME280;58465;51.534;9.934;2022-08-21T12:53:07;99879.44;;;35.98;18.90
70841;BME280;58465;51.534;9.934;2022-08-21T12:55:34;99887.91;;;36.87;17.86
70841;BME280;58465;51.534;9.934;2022-08-21T12:58:00;99884.47;;;36.78;18.60
70841;BME280;58465;51.534;9.934;2022-08-21T13:00:27;99884.53;;;36.57;18.75
70841;BME280;58465;51.534;9.934;2022-08-21T13:02:54;99869.44;;;37.40;17.59
70841;BME280;58465;51.534;9.934;2022-08-21T13:05:34;99866.94;;;37.84;16.82
70841;BME280;58465;51.534;9.934;2022-08-21T13:08:05;99874.34;;;37.18;17.63
70841;BME280;58465;51.534;9.934;2022-08-21T13:10:32;99864.81;;;36.93;18.09
70841;BME280;58465;51.534;9.934;2022-08-21T13:13:04;99880.31;;;36.67;17.92
70841;BME280;58465;51.534;9.934;2022-08-21T13:15:33;99863.34;;;34.87;19.40
70841;BME280;58465;51.534;9.934;2022-08-21T13:18:00;99860.34;;;33.48;21.28
70841;BME280;58465;51.534;9.934;2022-08-21T13:20:37;99857.53;;;34.52;19.69
70841;BME280;58465;51.534;9.934;2022-08-21T13:23:08;99853.56;;;34.40;20.17
70841;BME280;58465;51.534;9.934;2022-08-21T13:25:40;99863.25;;;35.16;19.49
70841;BME280;58465;51.534;9.934;2022-08-21T13:28:09;99856.16;;;36.05;18.49
70841;BME280;58465;51.534;9.934;2022-08-21T13:30:39;99864.03;;;36.64;17.94
70841;BME280;58465;51.534;9.934;2022-08-21T13:33:07;99853.97;;;36.22;18.51
70841;BME280;58465;51.534;9.934;2022-08-21T13:35:44;99858.09;;;34.62;19.80
70841;BME280;58465;51.534;9.934;2022-08-21T13:38:12;99850.16;;;33.17;21.39
70841;BME280;58465;51.534;9.934;2022-08-21T13:40:53;99858.56;;;35.17;18.33
70841;BME280;58465;51.534;9.934;2022-08-21T13:43:28;99856.53;;;36.65;17.48
70841;BME280;58465;51.534;9.934;2022-08-21T13:45:56;99856.38;;;37.27;16.84
70841;BME280;58465;51.534;9.934;2022-08-21T13:48:25;99859.41;;;37.39;17.04
70841;BME280;58465;51.534;9.934;2022-08-21T13:50:51;99858.50;;;38.44;15.94
70841;BME280;58465;51.534;9.934;2022-08-21T13:53:36;99851.28;;;39.88;14.29
70841;BME280;58465;51.534;9.934;2022-08-21T13:56:32;99857.16;;;40.96;13.45
70841;BME280;58465;51.534;9.934;2022-08-21T13:58:59;99858.66;;;40.62;13.90
70841;BME280;58465;51.534;9.934;2022-08-21T14:01:28;99853.09;;;38.55;15.80
70841;BME280;58465;51.534;9.934;2022-08-21T14:04:07;99844.44;;;36.44;17.89
70841;BME280;58465;51.534;9.934;2022-08-21T14:06:39;99843.28;;;33.97;20.12